Terminal Aerodrome Forecast
Issued by NWS Tallahassee, FL

Home | Current Version | Previous Version | Text Only | Print | Product List | Glossary On
Versions: 1 2 3 4 5 6 7 8 9 10 11 12 13 14 15 16
207
FTUS42 KTAE 221120
TAFTLH
TAF
KTLH 221120Z 2212/2312 VRB03KT P6SM FEW040 SCT150 SCT250
     FM221800 17005KT P6SM TS BKN040CB
     FM222000 20005KT 3SM TSRA SCT020 BKN035CB
     FM222300 VRB03KT P6SM FEW040 SCT120 BKN250=

USA.gov is the U.S. government's official web portal to all federal, state and local government web resources and services.